Time;durP1;ratioP1;P1;durP2;ratioP2;P2;SDS_P1;SDS_P2;PMS_P1;PMS_P2;Temp;Humidity;BMP_temperature;BMP_pressure;BME280_temperature;BME280_humidity;BME280_pressure;Samples;Min_cycle;Max_cycle;Signal;HPM_P1;HPM_P2
2022/01/13 00:02:20;;;;;;;5.85;3.28;;;;;;;17.27;18.73;99681.25;5153182;27;20050;-63
2022/01/13 00:04:47;;;;;;;5.75;4.00;;;;;;;17.27;18.78;99687.47;5151930;27;20409;-63
2022/01/13 00:07:13;;;;;;;5.07;3.50;;;;;;;17.29;18.78;99687.28;5133928;27;20027;-64
2022/01/13 00:09:39;;;;;;;5.40;3.60;;;;;;;17.29;18.65;99685.44;5135402;27;20533;-64
2022/01/13 00:12:07;;;;;;;5.97;3.60;;;;;;;17.29;18.93;99681.94;5133714;27;20118;-64
2022/01/13 00:17:23;;;;;;;5.35;3.55;;;;;;;17.33;18.63;99688.66;5152219;27;20125;-64
2022/01/13 00:19:57;;;;;;;4.88;3.70;;;;;;;17.30;19.18;99687.13;5144307;27;20071;-64
2022/01/13 00:24:57;;;;;;;5.18;3.30;;;;;;;17.28;18.80;99683.75;5152963;27;20034;-62
2022/01/13 00:27:24;;;;;;;5.38;3.47;;;;;;;17.30;19.11;99687.13;5152894;27;20110;-64
2022/01/13 00:29:50;;;;;;;7.15;4.28;;;;;;;17.28;18.96;99673.06;5137884;27;20023;-64
2022/01/13 00:32:16;;;;;;;4.70;3.60;;;;;;;17.27;18.75;99670.56;5148264;27;20045;-63
2022/01/13 00:34:43;;;;;;;7.00;4.40;;;;;;;17.25;18.70;99654.69;5152780;27;20071;-63
2022/01/13 00:37:10;;;;;;;6.30;4.18;;;;;;;17.25;18.94;99660.03;5144300;27;20030;-62
2022/01/13 00:39:35;;;;;;;5.75;3.88;;;;;;;17.23;18.93;99652.16;5137709;27;20080;-65
2022/01/13 00:42:01;;;;;;;4.57;3.50;;;;;;;17.24;19.02;99642.31;5136595;27;20030;-66
2022/01/13 00:44:27;;;;;;;6.03;3.65;;;;;;;17.26;19.22;99628.78;5152905;27;20027;-65
2022/01/13 00:47:00;;;;;;;6.88;3.83;;;;;;;17.23;19.29;99633.44;5152938;27;20026;-66
2022/01/13 00:49:26;;;;;;;4.90;4.00;;;;;;;17.22;19.00;99626.41;5135664;27;20453;-66
2022/01/13 00:51:52;;;;;;;5.70;3.40;;;;;;;17.24;19.16;99612.91;5134328;27;20058;-65
2022/01/13 00:54:18;;;;;;;5.50;3.95;;;;;;;17.24;19.13;99603.03;5147346;27;20030;-65
2022/01/13 00:56:44;;;;;;;5.55;3.65;;;;;;;17.26;19.15;99605.56;5152805;27;20087;-65
2022/01/13 00:59:11;;;;;;;6.57;3.67;;;;;;;17.23;18.56;99587.97;5125862;27;20025;-66
2022/01/13 01:01:40;;;;;;;4.32;3.38;;;;;;;17.23;18.71;99576.47;5144210;27;20458;-66
2022/01/13 01:04:06;;;;;;;3.95;3.20;;;;;;;17.20;18.73;99563.41;5142877;27;20035;-66
2022/01/13 01:06:32;;;;;;;5.22;3.65;;;;;;;17.16;18.91;99576.28;5133988;27;20031;-66
2022/01/13 01:08:59;;;;;;;6.75;3.33;;;;;;;17.15;18.81;99581.78;5160968;27;20037;-66
2022/01/13 01:11:26;;;;;;;5.50;3.63;;;;;;;17.12;19.22;99574.09;5175527;27;20034;-66
2022/01/13 01:13:53;;;;;;;5.53;3.55;;;;;;;17.12;18.98;99579.44;5164804;27;20037;-66
2022/01/13 01:16:19;;;;;;;5.43;3.75;;;;;;;17.13;19.02;99576.59;5154402;27;20030;-66
2022/01/13 01:26:27;;;;;;;7.53;4.03;;;;;;;17.07;18.86;99548.69;5133494;27;20514;-66
2022/01/13 01:29:02;;;;;;;5.75;3.72;;;;;;;17.04;18.86;99543.66;5141321;27;20038;-66
2022/01/13 01:31:31;;;;;;;6.13;4.10;;;;;;;17.01;19.04;99533.28;5151711;27;20038;-66
2022/01/13 01:34:53;;;;;;;5.57;4.05;;;;;;;17.02;19.17;99518.91;5153719;27;20034;-66
2022/01/13 01:36:43;;;;;;;5.05;3.60;;;;;;;17.04;18.95;99529.47;5138926;27;20409;-66
2022/01/13 01:39:10;;;;;;;6.07;3.72;;;;;;;17.04;18.99;99524.13;5152812;27;20073;-66
2022/01/13 01:41:47;;;;;;;5.78;3.78;;;;;;;17.05;18.83;99529.28;5150301;27;20105;-66
2022/01/13 01:44:16;;;;;;;4.95;3.70;;;;;;;17.04;19.01;99526.78;5133304;28;20034;-66
2022/01/13 01:46:45;;;;;;;6.43;3.85;;;;;;;17.06;18.53;99528.28;5132923;28;20538;-66
2022/01/13 01:49:24;;;;;;;5.35;3.95;;;;;;;17.05;18.63;99534.63;5135422;27;20109;-66
2022/01/13 01:51:55;;;;;;;6.55;3.75;;;;;;;17.04;18.66;99529.47;5133174;28;20114;-66
2022/01/13 01:54:21;;;;;;;7.72;4.05;;;;;;;17.02;19.11;99526.13;5133256;28;20038;-66
2022/01/13 01:56:46;;;;;;;6.28;3.78;;;;;;;16.99;18.68;99537.94;5132945;28;20401;-66
2022/01/13 01:59:16;;;;;;;6.82;4.30;;;;;;;17.00;18.55;99531.59;5140611;27;20039;-67
2022/01/13 02:01:43;;;;;;;5.07;4.25;;;;;;;17.01;18.58;99527.94;5132931;28;20039;-66
2022/01/13 02:04:09;;;;;;;6.25;3.83;;;;;;;17.01;18.85;99527.94;5142833;27;20042;-66
2022/01/13 02:06:37;;;;;;;6.25;4.13;;;;;;;17.01;18.55;99519.09;5153130;27;20493;-66
2022/01/13 02:09:05;;;;;;;6.05;4.22;;;;;;;17.00;18.47;99518.25;5152446;27;20447;-66
2022/01/13 02:11:40;;;;;;;6.00;3.92;;;;;;;17.01;18.83;99505.72;5153228;27;20038;-65
2022/01/13 02:14:21;;;;;;;5.05;3.72;;;;;;;16.99;18.98;99508.56;5141482;27;20039;-66
2022/01/13 02:16:50;;;;;;;6.13;3.60;;;;;;;16.97;19.09;99518.59;5136830;27;20069;-65
2022/01/13 02:19:17;;;;;;;8.68;4.30;;;;;;;16.97;19.15;99526.63;5152835;27;20631;-66
2022/01/13 02:21:43;;;;;;;6.03;4.43;;;;;;;16.95;18.77;99528.59;5153409;27;20496;-66
2022/01/13 02:24:08;;;;;;;8.70;4.80;;;;;;;16.96;18.85;99524.94;5152169;27;20035;-66
2022/01/13 02:26:34;;;;;;;7.07;4.55;;;;;;;16.96;19.12;99524.94;5153087;27;20039;-65
2022/01/13 02:28:59;;;;;;;6.93;4.55;;;;;;;16.95;18.90;99528.59;5152118;27;20057;-66
2022/01/13 02:31:26;;;;;;;8.50;4.60;;;;;;;16.95;18.88;99525.94;5153345;27;20541;-66
2022/01/13 02:33:53;;;;;;;6.35;5.15;;;;;;;16.95;19.07;99530.44;5141688;27;20043;-66
2022/01/13 02:36:20;;;;;;;5.97;4.07;;;;;;;16.93;18.71;99519.88;5141557;27;20027;-66
2022/01/13 02:38:50;;;;;;;7.45;4.90;;;;;;;16.90;18.74;99530.88;5156344;27;20038;-66
2022/01/13 02:41:16;;;;;;;7.20;4.22;;;;;;;16.88;18.94;99516.84;5155707;27;20046;-66
2022/01/13 02:43:47;;;;;;;7.45;4.20;;;;;;;16.89;18.67;99513.19;5153430;27;20034;-66
2022/01/13 02:49:00;;;;;;;6.13;3.58;;;;;;;16.91;18.96;99529.88;5147673;27;20035;-65
2022/01/13 02:51:27;;;;;;;6.05;4.20;;;;;;;16.92;18.50;99528.91;5156659;27;20507;-65
2022/01/13 02:53:52;;;;;;;6.13;4.05;;;;;;;16.94;19.14;99521.56;5155613;27;20090;-65
2022/01/13 02:56:18;;;;;;;5.72;4.25;;;;;;;16.91;18.90;99514.69;5154903;27;20022;-65
2022/01/13 02:58:45;;;;;;;6.05;4.43;;;;;;;16.90;18.69;99498.81;5156552;27;20030;-65
2022/01/13 03:01:11;;;;;;;6.65;4.80;;;;;;;16.90;18.98;99491.66;5156616;27;20030;-66
2022/01/13 03:03:38;;;;;;;6.72;4.78;;;;;;;16.91;18.49;99455.06;5156134;27;20082;-67
2022/01/13 03:06:12;;;;;;;6.80;4.60;;;;;;;16.90;18.48;99448.03;5148780;27;20501;-67
2022/01/13 03:08:41;;;;;;;7.50;4.18;;;;;;;16.90;18.85;99446.22;5150186;27;20034;-66
2022/01/13 03:11:07;;;;;;;7.50;4.80;;;;;;;16.89;18.59;99457.06;5155649;27;20042;-67
2022/01/13 03:13:33;;;;;;;6.53;4.45;;;;;;;16.87;18.91;99475.09;5145676;27;20035;-67
2022/01/13 03:15:58;;;;;;;8.55;5.45;;;;;;;16.86;18.84;99466.25;5135355;27;20027;-67
2022/01/13 03:18:24;;;;;;;7.40;4.50;;;;;;;16.86;18.84;99474.25;5145047;27;20034;-67
2022/01/13 03:20:49;;;;;;;7.35;4.55;;;;;;;16.88;18.81;99476.75;5156083;27;20584;-67
2022/01/13 03:23:17;;;;;;;5.97;4.72;;;;;;;16.88;18.83;99477.63;5150174;27;20042;-67
2022/01/13 03:25:45;;;;;;;8.10;4.88;;;;;;;16.90;18.50;99478.28;5135375;27;20413;-66
2022/01/13 03:28:16;;;;;;;6.95;4.70;;;;;;;16.89;18.98;99462.41;5145536;27;20065;-65
2022/01/13 03:30:44;;;;;;;5.43;4.22;;;;;;;16.87;18.88;99457.22;5156081;27;20121;-66
2022/01/13 03:33:10;;;;;;;6.18;4.38;;;;;;;16.86;19.08;99454.72;5155318;27;20039;-66
2022/01/13 03:35:41;;;;;;;6.30;4.63;;;;;;;16.84;19.11;99436.19;5156059;27;20069;-66
2022/01/13 03:38:07;;;;;;;7.10;4.53;;;;;;;16.81;19.17;99419.66;5144214;27;20031;-65
2022/01/13 03:40:33;;;;;;;6.43;4.55;;;;;;;16.79;19.17;99403.75;5135348;27;20062;-66
2022/01/13 03:43:01;;;;;;;6.97;4.93;;;;;;;16.77;18.87;99403.94;5143057;27;20038;-65
2022/01/13 03:45:27;;;;;;;5.95;4.20;;;;;;;16.77;19.26;99397.75;5135019;27;20043;-65
2022/01/13 03:47:53;;;;;;;5.00;3.78;;;;;;;16.76;19.21;99388.09;5135622;27;20071;-65
2022/01/13 03:50:18;;;;;;;7.30;4.40;;;;;;;16.75;19.54;99384.56;5135066;27;20039;-66
2022/01/13 03:53:02;;;;;;;5.30;3.97;;;;;;;16.76;19.02;99396.91;5140853;27;20050;-66
2022/01/13 03:55:38;;;;;;;6.20;4.07;;;;;;;16.75;19.13;99383.72;5149159;27;20485;-66
2022/01/13 03:58:40;;;;;;;5.57;3.85;;;;;;;16.74;19.07;99374.03;5134568;27;20038;-66
2022/01/13 04:01:43;;;;;;;5.22;3.90;;;;;;;16.75;18.98;99370.38;5134578;27;20069;-68
2022/01/13 04:04:08;;;;;;;6.40;4.40;;;;;;;16.75;18.80;99363.19;5149337;27;20511;-65
2022/01/13 04:06:43;;;;;;;7.28;4.63;;;;;;;16.75;19.13;99354.34;5155462;27;20035;-65
2022/01/13 04:09:28;;;;;;;8.35;4.95;;;;;;;16.73;19.11;99373.19;5155520;27;20030;-66
2022/01/13 04:11:54;;;;;;;7.00;4.68;;;;;;;16.74;19.28;99360.69;5155069;27;20168;-67
2022/01/13 04:14:28;;;;;;;6.88;4.55;;;;;;;16.75;19.05;99362.34;5141865;27;20125;-67
2022/01/13 04:16:54;;;;;;;8.13;4.30;;;;;;;16.74;19.06;99350.00;5154757;27;20046;-65
2022/01/13 04:19:20;;;;;;;7.15;5.05;;;;;;;16.70;18.90;99333.44;5152665;27;20038;-65
2022/01/13 04:21:45;;;;;;;6.05;4.40;;;;;;;16.69;19.13;99349.66;5154766;27;20042;-65
2022/01/13 04:24:12;;;;;;;6.72;5.00;;;;;;;16.69;19.02;99331.78;5152199;27;20041;-66
2022/01/13 04:26:41;;;;;;;7.88;5.00;;;;;;;16.72;19.26;99309.25;5155071;27;20030;-65
2022/01/13 04:31:36;;;;;;;8.02;5.05;;;;;;;16.72;18.92;99298.56;5133993;27;20027;-67
2022/01/13 04:34:01;;;;;;;7.60;4.90;;;;;;;16.73;19.07;99300.25;5151356;27;20405;-65
2022/01/13 04:36:27;;;;;;;8.15;5.18;;;;;;;16.69;18.82;99286.34;5146094;27;20050;-67
2022/01/13 04:38:53;;;;;;;5.18;3.75;;;;;;;16.70;19.26;99301.38;5138007;27;20035;-67
2022/01/13 04:41:29;;;;;;;7.95;4.88;;;;;;;16.68;18.88;99290.06;5134565;27;20058;-66
2022/01/13 04:43:55;;;;;;;8.48;5.68;;;;;;;16.68;18.61;99287.38;5148621;27;20046;-67
2022/01/13 04:46:21;;;;;;;7.10;4.93;;;;;;;16.68;18.56;99303.41;5154707;27;20042;-67
2022/01/13 04:48:46;;;;;;;8.75;5.10;;;;;;;16.67;18.51;99298.22;5154568;27;20389;-67
2022/01/13 04:51:12;;;;;;;7.40;4.78;;;;;;;16.68;18.68;99305.22;5152816;27;20041;-67
2022/01/13 04:53:38;;;;;;;6.00;4.40;;;;;;;16.67;18.89;99287.53;5153573;27;20043;-67
2022/01/13 04:56:10;;;;;;;6.43;4.75;;;;;;;16.66;18.74;99276.03;5154300;27;20030;-67
2022/01/13 04:58:35;;;;;;;6.82;4.85;;;;;;;16.62;18.71;99264.81;5152182;27;20068;-67
2022/01/13 05:01:01;;;;;;;6.13;4.47;;;;;;;16.61;18.77;99267.66;5154578;27;20035;-67
2022/01/13 05:03:27;;;;;;;4.90;3.78;;;;;;;16.60;18.59;99274.00;5137686;27;20142;-66
2022/01/13 05:05:52;;;;;;;5.93;3.75;;;;;;;16.62;19.01;99266.66;5154304;27;20038;-67
2022/01/13 05:08:17;;;;;;;5.68;3.92;;;;;;;16.64;19.07;99283.38;5135055;27;20031;-67
2022/01/13 05:10:43;;;;;;;6.70;4.38;;;;;;;16.63;19.00;99268.34;5133593;27;20039;-67
2022/01/13 05:13:10;;;;;;;6.30;4.32;;;;;;;16.66;18.86;99265.34;5133187;27;20465;-67
2022/01/13 05:15:38;;;;;;;6.47;4.85;;;;;;;16.67;19.00;99253.66;5133253;27;20103;-67
2022/01/13 05:18:16;;;;;;;5.50;4.25;;;;;;;16.67;18.70;99226.94;5118358;27;20249;-66
2022/01/13 05:20:47;;;;;;;8.63;3.85;;;;;;;16.70;19.07;99236.44;5112851;28;20566;-66
2022/01/13 05:23:14;;;;;;;5.32;3.95;;;;;;;16.69;19.07;99251.63;5122298;27;20035;-66
2022/01/13 05:25:41;;;;;;;6.60;4.25;;;;;;;16.70;19.32;99249.81;5133151;27;20475;-66
2022/01/13 05:28:07;;;;;;;7.63;3.85;;;;;;;16.71;19.47;99238.94;5132171;27;20039;-67
2022/01/13 05:30:33;;;;;;;7.07;4.70;;;;;;;16.71;19.23;99222.09;5133141;27;20138;-67
2022/01/13 05:32:58;;;;;;;9.55;5.95;;;;;;;16.68;19.07;99211.72;5132111;27;20038;-66
2022/01/13 05:35:25;;;;;;;8.40;5.03;;;;;;;16.68;18.88;99193.03;5132920;27;20135;-67
2022/01/13 05:37:52;;;;;;;7.53;5.07;;;;;;;16.66;19.14;99177.19;5126588;27;20114;-67
2022/01/13 05:40:18;;;;;;;7.38;4.88;;;;;;;16.64;19.21;99168.50;5130458;28;20127;-66
2022/01/13 05:42:43;;;;;;;8.73;5.38;;;;;;;16.65;18.88;99167.50;5125797;27;20118;-67
2022/01/13 05:45:15;;;;;;;7.65;4.93;;;;;;;16.64;19.07;99168.50;5132941;28;20466;-66
2022/01/13 05:47:43;;;;;;;7.47;5.22;;;;;;;16.62;18.89;99160.66;5130774;27;20552;-66
2022/01/13 05:50:11;;;;;;;9.02;5.45;;;;;;;16.64;19.31;99152.47;5130993;27;20504;-67
2022/01/13 05:52:36;;;;;;;8.00;5.35;;;;;;;16.63;18.90;99156.97;5132562;27;20139;-66
2022/01/13 05:55:04;;;;;;;8.30;5.45;;;;;;;16.61;19.22;99159.00;5132878;28;20122;-66
2022/01/13 05:57:30;;;;;;;7.47;5.28;;;;;;;16.63;19.11;99156.16;5132685;27;20443;-66
2022/01/13 05:59:55;;;;;;;7.60;5.18;;;;;;;16.63;18.94;99150.81;5124893;27;20042;-66
2022/01/13 06:02:21;;;;;;;7.68;4.70;;;;;;;16.62;19.58;99146.47;5140055;27;20432;-66
2022/01/13 06:04:46;;;;;;;7.10;4.97;;;;;;;16.59;18.99;99125.44;5135309;27;20466;-66
2022/01/13 06:07:12;;;;;;;6.63;4.82;;;;;;;16.59;18.85;99150.31;5141447;27;20030;-66
2022/01/13 06:09:37;;;;;;;7.68;5.72;;;;;;;16.58;19.17;99151.31;5171505;27;20116;-66
2022/01/13 06:12:04;;;;;;;7.78;5.10;;;;;;;16.57;18.75;99152.31;5156257;27;20034;-66
2022/01/13 06:14:29;;;;;;;7.68;5.45;;;;;;;16.58;19.21;99158.50;5136647;27;20083;-66
2022/01/13 06:16:55;;;;;;;9.45;5.30;;;;;;;16.57;18.77;99138.97;5146139;27;20046;-66
2022/01/13 06:19:21;;;;;;;7.78;4.85;;;;;;;16.59;19.10;99134.31;5144919;27;20046;-66
2022/01/13 06:21:47;;;;;;;7.72;5.30;;;;;;;16.60;18.77;99129.78;5136503;27;20072;-66
2022/01/13 06:24:12;;;;;;;7.28;5.38;;;;;;;16.59;19.08;99120.09;5155063;27;20039;-66
2022/01/13 06:26:38;;;;;;;9.27;6.28;;;;;;;16.60;18.86;99137.78;5157275;27;20117;-66
2022/01/13 06:29:03;;;;;;;8.32;5.90;;;;;;;16.56;18.60;99125.78;5154845;27;20418;-66
2022/01/13 06:31:29;;;;;;;9.70;6.85;;;;;;;16.54;18.52;99099.25;5154727;27;20035;-65
2022/01/13 06:33:54;;;;;;;7.70;5.82;;;;;;;16.50;18.97;99089.91;5156496;27;20038;-66
2022/01/13 06:36:20;;;;;;;8.95;6.32;;;;;;;16.47;18.58;99100.91;5144916;27;20030;-66
2022/01/13 06:38:48;;;;;;;10.85;6.78;;;;;;;16.50;19.05;99097.09;5154612;27;20382;-66
2022/01/13 06:41:15;;;;;;;9.25;6.22;;;;;;;16.49;18.97;99104.25;5152276;27;20030;-65
2022/01/13 06:43:40;;;;;;;9.57;6.38;;;;;;;16.51;18.85;99080.06;5152652;27;20481;-65
2022/01/13 06:46:06;;;;;;;9.65;6.88;;;;;;;16.52;18.69;99063.84;5152930;27;20030;-66
2022/01/13 06:48:32;;;;;;;9.95;6.57;;;;;;;16.54;19.06;99072.53;5155420;27;20034;-66
2022/01/13 06:50:58;;;;;;;9.85;6.53;;;;;;;16.54;19.02;99053.84;5153726;27;20042;-66
2022/01/13 06:53:24;;;;;;;10.15;6.95;;;;;;;16.54;18.62;99035.16;5155524;27;20501;-66
2022/01/13 06:55:51;;;;;;;10.52;7.10;;;;;;;16.56;18.84;99024.28;5150270;27;20033;-66
2022/01/13 06:58:17;;;;;;;9.38;6.35;;;;;;;16.57;18.49;99044.66;5150914;27;20038;-66
2022/01/13 07:00:43;;;;;;;9.43;6.20;;;;;;;16.60;18.39;99052.31;5151699;27;20500;-66
2022/01/13 07:03:09;;;;;;;8.68;6.40;;;;;;;16.61;18.89;99060.19;5135643;27;20059;-66
2022/01/13 07:05:35;;;;;;;8.85;6.70;;;;;;;16.62;18.68;99053.81;5154458;27;20377;-66
2022/01/13 07:08:02;;;;;;;13.05;7.20;;;;;;;16.62;18.74;99039.63;5156551;27;20045;-66
2022/01/13 07:10:28;;;;;;;9.60;7.10;;;;;;;16.62;18.81;99018.25;5144128;27;20374;-66
2022/01/13 07:12:54;;;;;;;8.35;5.65;;;;;;;16.62;18.44;99020.94;5143263;27;20052;-67
2022/01/13 07:15:19;;;;;;;9.00;5.90;;;;;;;16.63;18.67;99015.41;5142131;27;20033;-67
2022/01/13 07:17:46;;;;;;;12.02;6.45;;;;;;;16.62;18.17;98999.56;5139267;27;20031;-67
2022/01/13 07:20:12;;;;;;;8.07;5.60;;;;;;;16.62;18.29;98999.56;5135577;27;20397;-67
2022/01/13 07:22:39;;;;;;;9.10;5.85;;;;;;;16.64;18.44;99000.22;5136180;27;20035;-68
2022/01/13 07:25:09;;;;;;;8.52;6.00;;;;;;;16.67;18.07;99001.72;5156087;27;20481;-66
2022/01/13 07:27:35;;;;;;;7.50;5.15;;;;;;;16.70;18.80;98983.50;5141110;27;20575;-67
2022/01/13 07:30:00;;;;;;;8.18;5.90;;;;;;;16.70;18.46;98971.97;5151671;27;20113;-66
2022/01/13 07:32:27;;;;;;;10.43;6.03;;;;;;;16.73;18.60;98953.75;5151936;27;20110;-67
2022/01/13 07:34:52;;;;;;;7.32;4.82;;;;;;;16.77;18.55;98949.75;5152699;27;20042;-67
2022/01/13 07:37:18;;;;;;;8.10;5.28;;;;;;;16.80;19.00;98959.22;5149749;27;20090;-67
2022/01/13 07:39:44;;;;;;;7.70;4.57;;;;;;;16.80;18.69;98974.44;5151809;27;20114;-66
2022/01/13 07:42:09;;;;;;;7.40;4.90;;;;;;;16.81;18.56;98976.94;5143616;27;20038;-66
2022/01/13 07:44:35;;;;;;;7.07;5.00;;;;;;;16.84;18.64;98971.25;5155072;27;20026;-67
2022/01/13 07:47:01;;;;;;;6.13;4.28;;;;;;;16.86;18.56;98953.19;5156223;27;20137;-66
2022/01/13 07:49:27;;;;;;;7.13;4.20;;;;;;;16.93;18.71;98956.81;5155929;27;20493;-66
2022/01/13 07:51:53;;;;;;;6.22;4.32;;;;;;;16.95;18.36;98940.66;5155606;27;20102;-65
2022/01/13 07:54:19;;;;;;;6.32;4.63;;;;;;;16.99;18.15;98928.59;5151757;27;20031;-66
2022/01/13 07:56:44;;;;;;;5.70;3.97;;;;;;;17.01;18.11;98937.25;5153336;27;20042;-66
2022/01/13 07:59:10;;;;;;;8.00;4.28;;;;;;;17.03;18.08;98931.75;5146982;27;20397;-65
2022/01/13 08:01:35;;;;;;;6.53;4.32;;;;;;;17.05;17.67;98921.72;5136885;27;20516;-66
2022/01/13 08:04:01;;;;;;;5.10;3.80;;;;;;;17.06;18.28;98915.34;5135861;27;20401;-66
2022/01/13 08:06:26;;;;;;;5.85;3.90;;;;;;;17.07;18.34;98904.47;5143052;27;20038;-66
2022/01/13 08:08:52;;;;;;;6.25;4.15;;;;;;;17.07;18.29;98895.63;5147124;27;20447;-67
2022/01/13 08:11:17;;;;;;;6.05;4.15;;;;;;;17.03;18.65;98873.78;5150886;27;20034;-66
2022/01/13 08:13:44;;;;;;;6.53;3.92;;;;;;;17.03;18.33;98863.09;5149613;27;20041;-66
2022/01/13 08:16:10;;;;;;;5.75;3.30;;;;;;;17.05;18.20;98854.91;5151056;27;20051;-67
2022/01/13 08:21:22;;;;;;;6.53;4.00;;;;;;;17.07;18.54;98843.00;5142779;27;20449;-66
2022/01/13 08:23:49;;;;;;;5.93;3.85;;;;;;;17.09;18.54;98840.16;5144941;27;20077;-66
2022/01/13 08:26:16;;;;;;;5.93;3.97;;;;;;;17.11;18.24;98815.94;5151204;27;20050;-66
2022/01/13 08:28:42;;;;;;;6.90;3.95;;;;;;;17.14;18.43;98802.19;5149703;27;20034;-66
2022/01/13 08:31:07;;;;;;;5.05;3.58;;;;;;;17.17;18.16;98791.13;5154196;27;20034;-66
2022/01/13 08:33:33;;;;;;;6.78;4.05;;;;;;;17.21;18.36;98779.06;5148591;27;20174;-67
2022/01/13 08:35:59;;;;;;;5.57;3.40;;;;;;;17.24;18.19;98760.00;5150558;27;20031;-67
2022/01/13 08:38:25;;;;;;;4.88;3.40;;;;;;;17.28;18.45;98769.28;5152683;27;20117;-67
2022/01/13 08:40:58;;;;;;;3.92;2.90;;;;;;;17.31;18.48;98763.56;5142717;27;20030;-66
2022/01/13 08:43:26;;;;;;;6.22;3.50;;;;;;;17.33;18.47;98750.84;5146219;27;20039;-65
2022/01/13 08:45:51;;;;;;;6.15;4.47;;;;;;;17.34;18.30;98727.63;5151008;27;20030;-65
2022/01/13 08:48:18;;;;;;;5.95;3.78;;;;;;;17.37;18.32;98719.22;5138720;27;20033;-66
2022/01/13 08:50:44;;;;;;;4.85;3.13;;;;;;;17.39;18.25;98720.72;5152512;27;20083;-66
2022/01/13 08:53:10;;;;;;;6.10;3.63;;;;;;;17.41;18.05;98733.06;5153257;27;20080;-67
2022/01/13 08:55:36;;;;;;;7.07;3.70;;;;;;;17.46;18.51;98727.97;5139178;27;20023;-65
2022/01/13 08:58:02;;;;;;;5.18;3.83;;;;;;;17.46;18.21;98703.91;5133916;27;20078;-67
2022/01/13 09:00:28;;;;;;;6.25;4.28;;;;;;;17.47;18.22;98702.91;5134712;27;20043;-66
2022/01/13 09:02:53;;;;;;;5.90;3.97;;;;;;;17.48;18.38;98697.38;5150625;27;20509;-66
2022/01/13 09:05:20;;;;;;;6.80;3.60;;;;;;;17.48;18.60;98699.22;5146845;27;20041;-65
2022/01/13 09:07:46;;;;;;;5.40;3.38;;;;;;;17.48;18.83;98683.16;5144761;27;20075;-67
2022/01/13 09:10:14;;;;;;;6.47;3.92;;;;;;;17.50;18.51;98659.75;5152459;27;20114;-66
2022/01/13 09:12:40;;;;;;;6.20;3.78;;;;;;;17.54;18.49;98655.69;5151569;27;20098;-66
2022/01/13 09:15:30;;;;;;;5.40;3.30;;;;;;;17.54;18.45;98639.63;5143017;27;20026;-66
2022/01/13 09:17:56;;;;;;;5.20;3.53;;;;;;;17.55;18.58;98609.19;5134209;27;20035;-66
2022/01/13 09:20:21;;;;;;;5.00;3.22;;;;;;;17.57;18.31;98603.66;5133052;27;20031;-67
2022/01/13 09:22:47;;;;;;;5.40;3.22;;;;;;;17.58;18.64;98600.78;5137030;27;20031;-66
2022/01/13 09:25:13;;;;;;;4.22;2.75;;;;;;;17.60;18.52;98601.41;5149147;27;20038;-67
2022/01/13 09:27:40;;;;;;;5.68;3.45;;;;;;;17.62;18.65;98614.63;5145338;27;20516;-67
2022/01/13 09:30:09;;;;;;;5.28;3.45;;;;;;;17.63;18.64;98624.31;5139372;27;20031;-68
2022/01/13 09:32:36;;;;;;;4.90;3.08;;;;;;;17.64;18.73;98626.78;5150194;27;20489;-66
2022/01/13 09:35:06;;;;;;;7.00;3.42;;;;;;;17.65;18.64;98640.97;5145225;27;20057;-66
2022/01/13 09:37:32;;;;;;;4.72;3.22;;;;;;;17.64;18.58;98624.09;5144439;27;20031;-66
2022/01/13 09:39:58;;;;;;;6.03;2.97;;;;;;;17.63;18.86;98618.97;5152427;27;20117;-67
2022/01/13 09:42:26;;;;;;;6.68;3.10;;;;;;;17.64;18.69;98609.91;5134052;27;20122;-65
2022/01/13 09:44:53;;;;;;;4.60;2.78;;;;;;;17.62;18.92;98586.00;5145740;27;20034;-70
2022/01/13 09:47:20;;;;;;;4.80;3.17;;;;;;;17.61;19.13;98581.69;5150232;27;20035;-65
2022/01/13 09:49:45;;;;;;;6.13;3.53;;;;;;;17.60;19.70;98590.72;5154811;27;20169;-67
2022/01/13 09:52:11;;;;;;;6.47;3.50;;;;;;;17.43;20.71;98591.97;5152976;27;20134;-67
2022/01/13 09:54:36;;;;;;;5.30;3.45;;;;;;;17.23;21.26;98571.19;5154240;27;20035;-67
2022/01/13 09:57:05;;;;;;;5.05;2.90;;;;;;;17.04;21.78;98553.91;5157770;27;20037;-68
2022/01/13 09:59:30;;;;;;;6.32;3.42;;;;;;;16.86;21.72;98544.41;5156963;27;20030;-67
2022/01/13 10:01:56;;;;;;;5.00;3.17;;;;;;;16.71;22.21;98532.91;5152789;27;20046;-66
2022/01/13 10:04:21;;;;;;;4.75;3.20;;;;;;;16.56;22.37;98535.56;5154326;27;20061;-67
2022/01/13 10:06:48;;;;;;;4.43;2.85;;;;;;;16.42;22.45;98526.56;5147244;27;20393;-67
2022/01/13 10:09:15;;;;;;;7.07;3.22;;;;;;;16.34;22.16;98532.81;5148714;27;20538;-68
2022/01/13 10:11:48;;;;;;;5.63;3.53;;;;;;;16.23;22.72;98526.06;5141384;27;20035;-67
2022/01/13 10:17:03;;;;;;;6.38;3.67;;;;;;;16.01;22.34;98495.78;5137733;27;20035;-66
2022/01/13 10:19:28;;;;;;;4.88;3.25;;;;;;;15.93;22.54;98467.34;5151987;27;20039;-67
2022/01/13 10:22:06;;;;;;;4.38;2.92;;;;;;;15.85;22.75;98443.41;5155335;27;20519;-67
2022/01/13 10:24:37;;;;;;;4.63;3.05;;;;;;;15.80;22.76;98432.44;5155296;27;20121;-67
2022/01/13 10:27:27;;;;;;;7.28;3.67;;;;;;;15.70;22.71;98414.88;5157195;27;20041;-66
2022/01/13 10:30:02;;;;;;;5.43;3.53;;;;;;;15.69;22.68;98410.53;5150208;27;20039;-66
2022/01/13 10:32:41;;;;;;;6.07;3.72;;;;;;;15.62;22.87;98388.25;5144226;27;20043;-66
2022/01/13 10:35:15;;;;;;;5.43;3.85;;;;;;;15.57;22.89;98377.34;5148189;27;20117;-67
2022/01/13 10:37:43;;;;;;;3.95;3.00;;;;;;;15.54;22.72;98367.03;5145904;27;20533;-67
2022/01/13 10:40:14;;;;;;;5.13;3.00;;;;;;;15.53;22.72;98371.50;5146597;27;20035;-68
2022/01/13 10:45:33;;;;;;;4.63;3.38;;;;;;;15.44;22.94;98343.28;5145600;27;20049;-67
2022/01/13 10:48:18;;;;;;;5.40;3.50;;;;;;;15.39;22.83;98325.19;5144846;27;20490;-66
2022/01/13 10:50:47;;;;;;;5.25;2.88;;;;;;;15.36;22.77;98314.06;5153521;27;20113;-65
2022/01/13 10:53:34;;;;;;;7.85;3.30;;;;;;;15.33;23.06;98303.75;5153730;27;20035;-65
2022/01/13 10:56:07;;;;;;;6.80;3.30;;;;;;;15.29;23.24;98302.47;5154647;27;20111;-66
2022/01/13 10:58:34;;;;;;;5.68;3.65;;;;;;;15.29;22.59;98287.31;5153957;27;20056;-64
2022/01/13 11:01:00;;;;;;;6.45;3.40;;;;;;;15.52;22.83;98267.75;5156201;27;20031;-64
2022/01/13 11:03:28;;;;;;;7.30;3.35;;;;;;;15.82;22.74;98239.19;5155867;27;20051;-64
2022/01/13 11:05:56;;;;;;;6.18;3.50;;;;;;;16.12;22.30;98231.16;5155777;27;20054;-64
2022/01/13 11:08:44;;;;;;;4.32;2.63;;;;;;;16.34;22.19;98212.50;5155535;27;20493;-64
2022/01/13 11:11:30;;;;;;;4.57;2.92;;;;;;;16.50;22.17;98206.06;5149345;27;20080;-64
2022/01/13 11:14:03;;;;;;;3.88;2.53;;;;;;;16.68;21.74;98208.28;5139018;27;20047;-65
2022/01/13 11:16:30;;;;;;;4.78;2.70;;;;;;;16.78;21.66;98203.41;5137197;27;20034;-65
2022/01/13 11:18:57;;;;;;;5.50;2.60;;;;;;;16.87;21.24;98187.22;5149134;27;20508;-65
2022/01/13 11:21:24;;;;;;;6.75;3.10;;;;;;;16.94;21.67;98164.06;5146404;27;20064;-64
2022/01/13 11:23:50;;;;;;;5.35;2.80;;;;;;;16.97;21.57;98161.03;5151684;27;20087;-64
2022/01/13 11:26:17;;;;;;;5.40;2.88;;;;;;;17.04;21.66;98158.41;5154037;27;20034;-66
2022/01/13 11:28:42;;;;;;;8.80;3.08;;;;;;;17.08;21.52;98132.94;5162644;27;20094;-65
2022/01/13 11:31:09;;;;;;;4.45;2.83;;;;;;;17.14;21.84;98125.97;5162581;27;20220;-65
2022/01/13 11:33:36;;;;;;;4.47;2.70;;;;;;;17.19;21.92;98118.19;5158775;27;20042;-65
2022/01/13 11:36:02;;;;;;;5.32;2.90;;;;;;;17.23;21.76;98077.50;5170410;27;20235;-65
2022/01/13 11:38:30;;;;;;;4.70;2.97;;;;;;;17.29;21.51;98059.81;5168029;27;20206;-66
2022/01/13 11:41:06;;;;;;;7.63;3.13;;;;;;;17.32;21.39;98054.06;5170314;27;20061;-65
2022/01/13 11:43:40;;;;;;;5.95;2.90;;;;;;;17.35;21.44;98058.22;5165098;27;20027;-64
2022/01/13 11:46:44;;;;;;;6.13;3.55;;;;;;;17.35;22.24;98075.06;5160198;27;20046;-65
2022/01/13 11:49:39;;;;;;;9.30;3.92;;;;;;;17.41;22.26;98044.03;5173057;27;20034;-65
2022/01/13 11:52:10;;;;;;;11.90;4.38;;;;;;;17.46;22.12;98056.78;5165176;27;20085;-65
2022/01/13 11:54:37;;;;;;;10.73;3.65;;;;;;;17.48;22.04;98036.03;5168792;27;20054;-65
2022/01/13 11:57:20;;;;;;;15.35;4.53;;;;;;;17.50;22.39;98012.56;5169824;27;20086;-65
2022/01/13 12:00:20;;;;;;;8.38;4.43;;;;;;;17.51;22.44;98007.00;5169900;27;20058;-64
2022/01/13 12:02:45;;;;;;;9.13;3.75;;;;;;;17.54;22.39;98006.63;5169541;27;20054;-64
2022/01/13 12:05:17;;;;;;;10.10;3.97;;;;;;;17.58;22.06;98004.34;5169727;27;20095;-65
2022/01/13 12:07:45;;;;;;;8.45;3.83;;;;;;;17.61;22.16;97992.44;5169004;27;20033;-64